Latest Weather Observations for Oakey

IDQ60901

Issued at 11:35 am EST Thursday 18 September 2014 (issued every 10 minutes, with the page automatically refreshed every 10 minutes)

About weather observations | Map of Brisbane area stations | Latest observations for Brisbane area | Other Formats
Station Details ID: 041359 Name: OAKEY AERO Lat: -27.40 Lon: 151.74 Height: 405.69 m
Data from the previous 72 hours. | See also: Recent months at Oakey
Date/Time
EST
Tmp

°C
App
Tmp
°C
Dew
Point
°C
Rel
Hum
%
Delta-T

°C
Wind Press
QNH
hPa
Press
MSL
hPa
Rain
since
9 am
mm
Dir
 
Spd
km/h
Gust
km/h
Spd
kts
Gust
kts
18/11:30am 20.8 12.8 -2.3 21 10.0 WSW 30 37 16 20 1019.9 - 0.0
18/11:00am 20.5 12.2 -1.9 22 9.8 SSW 32 41 17 22 1020.5 - 0.0
18/10:30am 19.8 12.4 -0.8 25 9.1 SW 28 44 15 24 1021.1 - 0.0
18/10:01am 19.7 11.4 -1.4 24 9.2 SW 32 44 17 24 1021.4 - 0.0
18/09:30am 18.9 10.4 -1.5 25 8.9 SW 33 48 18 26 1021.6 - 0.0
18/09:20am 19.0 11.1 -1.4 25 8.9 SSW 30 44 16 24 1021.6 - 0.0
18/09:00am 18.3 13.4 1.8 33 7.6 SW 17 26 9 14 1021.5 1020.8 0.0
18/08:30am 15.2 11.7 1.4 39 6.2 SW 9 13 5 7 1021.4 - 0.0
18/08:00am 12.7 10.1 1.1 45 5.0 W 4 7 2 4 1021.3 - 0.0
18/07:30am 10.8 9.1 1.6 53 4.0 CALM 0 0 0 0 1021.2 - 0.0
18/07:00am 7.6 6.0 2.3 69 2.3 CALM 0 0 0 0 1021.0 - 0.0
18/06:30am 4.2 1.3 1.2 81 1.2 NE 6 6 3 3 1020.5 - 0.0
18/06:00am 2.0 -1.3 -1.6 77 1.3 E 6 7 3 4 1020.1 1019.4 0.0
18/05:30am 3.0 -0.1 0.1 81 1.1 E 6 7 3 4 1019.8 - 0.0
18/05:00am 1.5 -1.8 -1.6 80 1.1 ENE 6 9 3 5 1019.4 - 0.0
18/04:30am 3.1 -0.2 0.2 81 1.1 ESE 7 9 4 5 1019.0 - 0.0
18/04:00am 3.8 0.7 0.0 76 1.5 ENE 6 7 3 4 1018.8 - 0.0
18/03:30am 4.0 0.6 -0.6 72 1.8 NNE 7 7 4 4 1018.7 - 0.0
18/03:00am 4.3 2.3 -0.3 72 1.8 CALM 0 0 0 0 1018.5 1017.7 0.0
18/02:30am 4.6 2.6 -0.2 71 1.9 CALM 0 0 0 0 1018.4 - 0.0
18/02:00am 5.8 3.9 0.6 69 2.1 CALM 0 0 0 0 1018.3 - 0.0
18/01:30am 6.4 3.7 0.3 65 2.4 W 4 6 2 3 1018.3 - 0.0
18/01:00am 7.6 4.5 -0.1 58 3.1 N 6 7 3 4 1018.1 - 0.0
18/12:30am 7.6 3.6 0.3 60 3.0 N 11 13 6 7 1018.1 - 0.0
18/12:00am 7.2 2.5 -2.0 52 3.5 N 13 15 7 8 1017.9 1017.2 0.0
 
Date/Time
EST
Tmp

°C
App
Tmp
°C
Dew
Point
°C
Rel
Hum
%
Delta-T

°C
Wind Press
QNH
hPa
Press
MSL
hPa
Rain
since
9 am
mm
Dir
 
Spd
km/h
Gust
km/h
Spd
kts
Gust
kts
17/11:30pm 8.2 3.3 -0.5 54 3.5 N 15 17 8 9 1017.6 - 0.0
17/11:00pm 8.4 4.2 -0.9 52 3.7 NE 11 13 6 7 1017.2 - 0.0
17/10:30pm 9.4 5.8 0.8 55 3.6 NNE 9 11 5 6 1017.2 - 0.0
17/10:00pm 10.7 7.5 1.0 51 4.1 NNE 7 11 4 6 1017.0 - 0.0
17/09:30pm 10.0 7.5 1.6 56 3.6 NNW 4 9 2 5 1016.9 - 0.0
17/09:00pm 14.4 10.5 1.0 40 5.9 SW 11 13 6 7 1016.8 1016.1 0.0
17/08:30pm 14.1 10.5 0.4 39 5.9 WSW 9 11 5 6 1016.5 - 0.0
17/08:00pm 14.5 9.9 -1.2 34 6.6 SW 13 17 7 9 1016.3 - 0.0
17/07:30pm 16.4 11.5 -0.3 32 7.3 SW 15 17 8 9 1015.9 - 0.0
17/07:00pm 18.3 12.6 -1.0 27 8.4 WSW 19 24 10 13 1015.3 - 0.0
17/06:30pm 17.7 12.3 -1.5 27 8.2 WSW 17 20 9 11 1014.9 - 0.0
17/06:00pm 20.2 14.2 -1.6 23 9.5 WSW 20 28 11 15 1014.6 1013.9 0.0
17/05:30pm 21.8 14.6 -2.1 20 10.5 WSW 26 35 14 19 1014.3 - 0.0
17/05:00pm 23.2 15.2 -2.4 18 11.3 W 30 39 16 21 1014.0 - 0.0
17/04:30pm 24.2 15.6 -4.0 15 12.2 W 32 43 17 23 1013.6 - 0.0
17/04:00pm 24.9 16.7 -4.4 14 12.7 WNW 30 41 16 22 1013.4 - 0.0
17/03:45pm 24.8 16.2 -2.7 16 12.3 W 33 44 18 24 1013.4 - 0.0
17/03:30pm 24.8 15.3 -3.6 15 12.5 WNW 37 46 20 25 1013.3 - 0.0
17/03:00pm 24.9 15.5 -2.6 16 12.3 W 37 54 20 29 1013.4 1012.6 0.0
17/02:55pm 25.0 15.4 -4.3 14 12.7 W 37 54 20 29 1013.5 - 0.0
17/02:30pm 25.6 17.7 -1.2 17 12.4 NW 30 39 16 21 1013.4 - 0.0
17/02:00pm 26.2 17.7 -1.6 16 12.8 WNW 33 50 18 27 1013.7 - 0.0
17/01:30pm 26.0 16.1 -0.9 17 12.5 NW 41 56 22 30 1014.1 - 0.0
17/01:23pm 25.6 17.7 -1.2 17 12.4 W 30 52 16 28 1014.2 - 0.0
17/01:00pm 25.6 18.6 -0.5 18 12.2 WNW 26 41 14 22 1014.4 - 0.0
17/12:30pm 24.8 18.7 0.3 20 11.6 WNW 22 32 12 17 1014.6 - 0.0
17/12:00pm 23.5 17.6 -0.7 20 11.1 W 20 28 11 15 1015.1 1014.4 0.0
17/11:30am 23.7 17.6 0.1 21 11.0 W 22 33 12 18 1015.8 - 0.0
17/11:00am 23.0 17.3 0.8 23 10.4 WNW 20 28 11 15 1016.4 - 0.0
17/10:30am 22.2 15.1 1.3 25 9.8 WSW 28 39 15 21 1017.0 - 0.0
17/10:00am 20.9 15.5 1.2 27 9.2 WSW 19 24 10 13 1017.2 - 0.0
17/09:30am 20.4 16.1 3.2 32 8.3 W 15 24 8 13 1017.6 - 0.0
17/09:00am 19.0 14.7 3.2 35 7.5 W 15 20 8 11 1017.7 1017.0 -
17/08:30am 17.3 13.7 3.2 39 6.6 W 11 15 6 8 1017.7 - -
17/08:00am 14.9 12.7 5.1 52 4.7 SW 6 7 3 4 1017.3 - -
17/07:30am 13.1 11.1 6.2 63 3.4 E 6 7 3 4 1017.2 - -
17/07:00am 10.1 8.1 6.3 77 1.8 ENE 6 7 3 4 1016.8 - -
17/06:30am 7.2 4.5 5.8 91 0.6 NE 9 11 5 6 1016.4 - -
17/06:00am 4.5 1.3 3.0 90 0.6 E 9 9 5 5 1016.2 1015.4 -
17/05:30am 5.2 2.4 3.4 88 0.8 E 7 9 4 5 1015.9 - -
17/05:00am 6.1 4.1 4.3 88 0.8 ENE 4 6 2 3 1015.7 - -
17/04:30am 5.7 2.7 3.9 88 0.8 ENE 9 11 5 6 1015.3 - -
17/04:00am 6.0 2.3 4.3 89 0.7 NE 13 13 7 7 1015.0 - -
17/03:30am 5.5 2.7 3.2 85 1.0 NE 7 9 4 5 1014.9 - -
17/03:00am 6.1 3.6 3.6 84 1.1 NE 6 7 3 4 1014.9 1014.2 -
17/02:30am 7.1 5.8 4.2 82 1.3 CALM 0 0 0 0 1014.7 - -
17/02:00am 7.4 5.1 4.9 84 1.1 NE 6 7 3 4 1014.9 - -
17/01:30am 7.5 5.0 4.6 82 1.3 NE 7 9 4 5 1015.0 - -
17/01:00am 8.4 5.9 4.6 77 1.7 NNE 7 9 4 5 1015.0 - -
17/12:30am 8.9 6.5 5.3 78 1.7 NE 7 7 4 4 1015.1 - -
17/12:00am 10.0 8.8 4.4 68 2.6 CALM 0 6 0 3 1015.3 1014.6 -
 
Date/Time
EST
Tmp

°C
App
Tmp
°C
Dew
Point
°C
Rel
Hum
%
Delta-T

°C
Wind Press
QNH
hPa
Press
MSL
hPa
Rain
since
9 am
mm
Dir
 
Spd
km/h
Gust
km/h
Spd
kts
Gust
kts
16/11:30pm 10.0 7.1 4.4 68 2.6 NNW 9 11 5 6 1015.2 - -
16/11:00pm 11.4 8.8 6.3 71 2.5 N 9 11 5 6 1015.1 - -
16/10:30pm 10.7 7.4 6.3 74 2.1 NNE 13 13 7 7 1015.1 - -
16/10:00pm 10.9 8.5 6.8 76 2.0 NE 9 11 5 6 1014.9 - -
16/09:30pm 11.9 9.9 7.0 72 2.4 NNE 7 9 4 5 1014.7 - -
16/09:00pm 12.6 10.8 7.1 69 2.7 SSE 6 9 3 5 1014.6 1013.9 0.0
16/08:30pm 15.2 14.4 6.7 57 4.2 CALM 0 0 0 0 1014.2 - -
16/08:00pm 16.9 16.0 6.1 49 5.4 CALM 0 0 0 0 1014.0 - -
16/07:30pm 18.1 16.6 6.9 48 5.7 E 4 7 2 4 1013.8 - -
16/07:00pm 17.7 16.1 6.3 47 5.7 N 4 11 2 6 1013.5 - -
16/06:30pm 19.6 16.7 6.7 43 6.6 NNW 11 20 6 11 1013.1 - -
16/06:00pm 21.1 16.5 6.6 39 7.5 NNW 20 26 11 14 1012.5 1011.8 -
16/05:30pm 21.9 16.9 6.6 37 8.0 NNW 22 32 12 17 1012.4 - -
16/05:00pm 23.0 18.1 6.7 35 8.5 NNW 22 30 12 16 1012.3 - -
16/04:30pm 23.8 21.0 8.6 38 8.3 NNW 13 20 7 11 1012.2 - -
16/04:16pm 22.1 17.6 9.9 46 6.7 NW 24 28 13 15 1012.3 - -
16/04:03pm 25.1 15.9 5.3 28 10.2 WNW 43 54 23 29 1012.1 - -
16/04:00pm 25.0 19.6 6.2 30 9.9 W 24 28 13 15 1011.9 - -
16/03:30pm 27.0 19.8 2.8 21 12.1 W 30 39 16 21 1011.5 - -
16/03:00pm 28.6 21.9 3.5 20 12.9 WNW 28 48 15 26 1011.5 - -
16/02:30pm 28.7 20.8 4.2 21 12.7 NW 35 41 19 22 1011.9 - -
16/02:00pm 27.8 20.1 3.5 21 12.4 W 33 41 18 22 1012.4 - -
16/01:36pm 28.3 20.7 3.9 21 12.6 NW 33 52 18 28 1012.7 - -
16/01:03pm 27.8 21.1 3.5 21 12.4 WNW 28 46 15 25 1013.3 - -
16/01:00pm 28.1 20.9 3.0 20 12.7 WNW 30 46 16 25 1013.4 - -
16/12:30pm 27.5 20.1 3.9 22 12.1 WNW 32 46 17 25 1014.0 - -
16/12:00pm 27.0 19.6 4.1 23 11.7 NW 32 48 17 26 1014.7 1014.0 -
16/11:30am 26.0 18.6 5.0 26 10.9 NW 33 43 18 23 1015.2 - -
16/11:00am 26.5 19.8 5.5 26 11.0 NW 30 39 16 21 1015.7 - -
16/10:30am 25.4 17.6 5.1 27 10.5 NW 35 44 19 24 1016.1 - -
16/10:00am 24.3 16.5 5.1 29 9.9 NNW 35 46 19 25 1016.6 - 0.0
16/09:30am 23.8 15.7 5.2 30 9.5 NNW 37 46 20 25 1017.0 - 0.0
16/09:00am 23.0 14.8 4.5 30 9.3 NNW 37 46 20 25 1017.5 1016.8 0.0
16/08:34am 22.2 15.2 4.3 31 8.9 NNW 30 48 16 26 1017.5 - 0.0
16/08:30am 22.2 16.2 5.2 33 8.6 NNW 26 33 14 18 1017.5 - 0.0
16/08:17am 21.3 14.1 5.2 35 8.1 NNW 32 35 17 19 1017.5 - 0.0
16/08:00am 18.7 15.7 6.2 44 6.3 NNW 11 15 6 8 1017.6 - 0.0
16/07:30am 16.8 14.4 7.2 53 4.9 WSW 9 11 5 6 1017.8 - 0.0
16/07:00am 15.4 13.5 9.1 66 3.3 E 9 13 5 7 1017.3 - 0.0
16/06:30am 12.3 9.1 8.6 78 1.9 ENE 15 17 8 9 1016.9 - 0.0
16/06:00am 10.2 7.1 7.4 83 1.4 ENE 13 15 7 8 1016.7 1016.0 0.0
16/05:30am 10.1 7.1 7.9 86 1.1 ENE 13 15 7 8 1016.6 - 0.0
16/05:00am 9.6 6.5 7.2 85 1.2 ENE 13 13 7 7 1016.4 - 0.0
16/04:30am 9.8 7.0 7.1 83 1.3 ENE 11 11 6 6 1016.3 - 0.0
16/04:00am 10.0 7.2 7.1 82 1.4 ENE 11 13 6 7 1016.0 - 0.0
16/03:30am 10.7 8.7 7.2 79 1.7 NE 7 9 4 5 1016.0 - 0.0
16/03:00am 12.7 11.2 8.6 76 2.1 ENE 6 7 3 4 1015.9 1015.1 0.0
16/02:30am 13.7 11.6 8.1 69 2.8 NE 9 13 5 7 1015.9 - 0.0
16/02:00am 13.8 12.0 8.0 68 2.9 E 7 9 4 5 1015.9 - 0.0
16/01:30am 14.1 12.3 8.1 67 3.1 NE 7 9 4 5 1016.0 - 0.0
16/01:00am 16.2 13.4 8.7 61 3.9 NNE 13 24 7 13 1016.0 - 0.0
16/12:30am 15.0 13.4 8.0 63 3.6 NNE 6 13 3 7 1016.1 - 0.0
16/12:00am 16.1 13.2 8.1 59 4.1 NNE 13 17 7 9 1016.2 1015.4 0.0
 
Date/Time
EST
Tmp

°C
App
Tmp
°C
Dew
Point
°C
Rel
Hum
%
Delta-T

°C
Wind Press
QNH
hPa
Press
MSL
hPa
Rain
since
9 am
mm
Dir
 
Spd
km/h
Gust
km/h
Spd
kts
Gust
kts
15/11:30pm 17.1 13.2 8.8 58 4.4 NNE 19 22 10 12 1016.3 - 0.0
15/11:00pm 17.5 13.5 8.9 57 4.5 NNE 20 26 11 14 1016.4 - 0.0
15/10:30pm 17.4 13.5 8.5 56 4.7 NNE 19 22 10 12 1016.5 - 0.0
15/10:00pm 15.0 13.1 6.8 58 4.1 NNE 6 7 3 4 1016.6 - 0.0
15/09:30pm 15.3 13.3 7.1 58 4.1 NE 7 11 4 6 1016.6 - 0.0
15/09:00pm 15.5 12.0 7.3 58 4.1 NE 15 17 8 9 1016.7 1016.0 0.0
15/08:30pm 15.0 11.6 7.5 61 3.8 NE 15 17 8 9 1016.5 - 0.0
15/08:00pm 15.3 11.4 7.3 59 4.0 NE 17 17 9 9 1016.4 - 0.0
15/07:30pm 15.7 12.0 6.4 54 4.6 NE 15 17 8 9 1016.1 - 0.0
15/07:00pm 18.1 14.4 7.8 51 5.3 NE 17 19 9 10 1015.9 - 0.0
15/06:30pm 18.8 15.2 8.2 50 5.6 NE 17 19 9 10 1015.7 - 0.0
15/06:00pm 20.7 16.6 8.0 44 6.7 NE 19 20 10 11 1015.4 1014.7 0.0
15/05:30pm 22.4 18.2 8.1 40 7.7 NE 20 24 11 13 1015.1 - 0.0
15/05:00pm 23.6 21.4 5.5 31 9.3 WSW 6 7 3 4 1014.9 - 0.0
15/04:30pm 24.1 21.2 4.5 28 9.9 WNW 9 11 5 6 1014.8 - 0.0
15/04:00pm 24.7 20.6 4.5 27 10.3 W 15 22 8 12 1014.8 - 0.0
15/03:30pm 24.3 19.5 4.6 28 10.0 WSW 19 26 10 14 1014.8 - 0.0
15/03:00pm 24.8 20.0 4.5 27 10.3 WSW 19 24 10 13 1014.9 1014.2 0.0
15/02:30pm 25.0 22.1 4.7 27 10.4 W 9 17 5 9 1015.0 - 0.0
15/02:00pm 25.5 20.5 4.6 26 10.7 NW 20 28 11 15 1015.4 - 0.0
15/01:30pm 24.9 20.6 5.2 28 10.2 WNW 17 28 9 15 1015.9 - 0.0
15/01:00pm 25.6 22.4 6.7 30 10.1 NNW 13 22 7 12 1016.4 - 0.0
15/12:30pm 24.8 20.4 6.5 31 9.7 WNW 19 24 10 13 1016.9 - 0.0
15/12:00pm 23.7 21.1 7.8 36 8.5 NNW 11 15 6 8 1017.6 1016.9 0.0

Latest Capital City Observations: Canberra | Sydney | Melbourne | Brisbane | Adelaide | Perth | Hobart | Darwin

Other Formats:

Comma delimited format used in spreadsheet applications
http://www.bom.gov.au/fwo/IDQ60901/IDQ60901.94552.axf

JavaScript Object Notation format (JSON) in row-major order
http://www.bom.gov.au/fwo/IDQ60901/IDQ60901.94552.json